Time;durP1;ratioP1;P1;durP2;ratioP2;P2;SDS_P1;SDS_P2;PMS_P1;PMS_P2;Temp;Humidity;BMP_temperature;BMP_pressure;BME280_temperature;BME280_humidity;BME280_pressure;Samples;Min_cycle;Max_cycle;Signal;HPM_P1;HPM_P2
2021/07/18 00:00:33;;;;;;;22.45;18.38;;;20.30;85.20;;;19.10;85.42;96208.81;4934714;29;20035;-71
2021/07/18 00:02:59;;;;;;;26.50;18.98;;;20.40;85.30;;;19.06;86.51;96202.34;4949251;28;20059;-71
2021/07/18 00:05:24;;;;;;;23.08;18.05;;;20.30;85.60;;;19.03;85.23;96202.84;4928067;28;20054;-71
2021/07/18 00:07:50;;;;;;;24.92;18.45;;;20.30;85.70;;;19.02;86.37;96195.88;4941282;29;20043;-71
2021/07/18 00:10:16;;;;;;;21.98;18.13;;;20.30;85.60;;;18.97;85.59;96189.41;4915881;29;20115;-71
2021/07/18 00:12:42;;;;;;;22.65;16.95;;;20.30;85.60;;;19.00;86.00;96192.63;4921011;29;20045;-72
2021/07/18 00:15:09;;;;;;;19.08;17.00;;;20.30;85.40;;;18.98;86.57;96191.00;4914973;29;20032;-73
2021/07/18 00:17:39;;;;;;;22.17;18.45;;;20.30;85.50;;;18.97;85.77;96189.41;4924093;28;20098;-71
2021/07/18 00:20:11;;;;;;;23.05;16.75;;;20.20;85.60;;;18.96;86.68;96187.78;4931206;29;20035;-71
2021/07/18 00:22:37;;;;;;;20.67;17.38;;;20.30;85.60;;;18.92;85.88;96175.97;4922363;29;20519;-71
2021/07/18 00:25:04;;;;;;;21.00;16.80;;;20.30;85.50;;;18.95;85.85;96172.84;4930843;29;20096;-71
2021/07/18 00:27:30;;;;;;;18.52;16.38;;;20.20;85.40;;;18.95;85.21;96170.16;4935681;28;20039;-71
2021/07/18 00:29:56;;;;;;;18.98;16.05;;;20.20;85.20;;;18.92;85.38;96164.50;4948569;28;20422;-72
2021/07/18 00:32:22;;;;;;;20.92;16.17;;;20.10;85.40;;;18.94;85.62;96165.88;4950108;28;20062;-72
2021/07/18 00:34:47;;;;;;;23.80;16.25;;;20.20;85.40;;;18.90;86.25;96161.28;4925877;29;20036;-72
2021/07/18 00:37:13;;;;;;;20.30;14.65;;;20.10;85.40;;;18.89;86.66;96163.13;4922139;28;20507;-72
2021/07/18 00:39:39;;;;;;;20.38;14.93;;;20.10;85.20;;;18.88;85.80;96166.03;4944831;29;20488;-72
2021/07/18 00:42:05;;;;;;;20.55;15.10;;;20.10;85.20;;;18.85;86.04;96156.66;4966997;28;20082;-71
2021/07/18 00:44:30;;;;;;;18.52;14.57;;;20.10;85.20;;;18.84;86.56;96162.25;4940674;28;20079;-71
2021/07/18 00:46:56;;;;;;;18.08;12.85;;;20.10;85.00;;;18.83;86.36;96148.09;4947847;28;20038;-73
2021/07/18 00:49:22;;;;;;;16.85;13.20;;;20.00;85.00;;;18.84;84.88;96154.25;4939411;28;20451;-71
2021/07/18 00:51:48;;;;;;;19.73;14.00;;;20.00;84.90;;;18.82;85.02;96154.50;4942681;28;20040;-72
2021/07/18 00:54:14;;;;;;;17.02;12.75;;;20.10;84.80;;;18.80;85.25;96151.25;4937109;29;20055;-72
2021/07/18 00:56:40;;;;;;;18.40;13.02;;;20.10;84.90;;;18.83;85.53;96165.97;4948850;28;20059;-73
2021/07/18 00:59:05;;;;;;;15.15;12.45;;;20.10;84.80;;;18.81;85.73;96152.06;4921866;29;20403;-71
2021/07/18 01:01:31;;;;;;;20.50;13.90;;;20.10;84.80;;;18.81;85.84;96157.41;4928656;28;20047;-71
2021/07/18 01:03:57;;;;;;;13.88;12.32;;;20.10;84.80;;;18.82;85.77;96156.34;4922891;28;20125;-71
2021/07/18 01:06:24;;;;;;;15.90;13.10;;;20.10;84.80;;;18.80;84.93;96151.25;4940740;28;20073;-70
2021/07/18 01:08:50;;;;;;;13.80;12.02;;;20.00;84.60;;;18.78;84.88;96156.00;4957782;28;20074;-72
2021/07/18 01:11:16;;;;;;;14.23;12.38;;;20.10;84.40;;;18.79;85.77;96157.63;4945369;28;20054;-72
2021/07/18 01:13:42;;;;;;;16.00;12.65;;;20.10;84.40;;;18.78;85.64;96153.31;4949887;28;20113;-73
2021/07/18 01:16:07;;;;;;;17.17;12.23;;;20.10;84.40;;;18.79;84.86;96159.50;4927133;28;20097;-72
2021/07/18 01:18:34;;;;;;;18.38;11.95;;;20.10;84.00;;;18.78;85.24;96158.66;4942139;28;20582;-72
2021/07/18 01:21:00;;;;;;;15.27;11.80;;;20.10;84.00;;;18.78;84.62;96148.00;4938667;29;20069;-73
2021/07/18 01:23:25;;;;;;;13.70;12.07;;;20.10;84.10;;;18.78;84.92;96158.66;4933048;28;20030;-74
2021/07/18 01:25:52;;;;;;;17.38;11.55;;;20.10;84.10;;;18.78;85.43;96152.50;4939800;28;20499;-73
2021/07/18 01:28:19;;;;;;;20.17;11.30;;;20.10;83.90;;;18.76;85.17;96155.41;4938263;28;20523;-73
2021/07/18 01:30:44;;;;;;;13.73;11.05;;;20.10;83.70;;;18.74;84.49;96152.19;4937846;28;20023;-73
2021/07/18 01:33:10;;;;;;;13.73;10.55;;;20.10;83.70;;;18.75;84.22;96161.00;4933648;28;20527;-74
2021/07/18 01:35:36;;;;;;;15.15;10.70;;;20.10;83.40;;;18.74;84.21;96152.19;4958318;28;20173;-73
2021/07/18 01:38:06;;;;;;;13.30;10.43;;;20.00;83.50;;;18.73;84.56;96161.22;4949797;28;20058;-74
2021/07/18 01:40:32;;;;;;;12.93;9.82;;;19.90;83.70;;;18.67;84.44;96143.53;4936845;28;20094;-71
2021/07/18 01:42:58;;;;;;;13.00;10.00;;;19.90;83.30;;;18.68;83.78;96155.81;4941817;28;20411;-70
2021/07/18 01:45:24;;;;;;;16.70;10.30;;;20.00;83.50;;;18.67;84.73;96141.69;4938569;28;20042;-71
2021/07/18 01:47:50;;;;;;;14.27;9.43;;;20.00;83.40;;;18.66;83.95;96144.59;4921562;28;20043;-71
2021/07/18 01:50:15;;;;;;;12.80;9.60;;;20.00;83.20;;;18.66;84.42;96144.59;4948109;28;20447;-71
2021/07/18 01:52:41;;;;;;;14.02;8.98;;;20.00;83.10;;;18.66;83.93;96150.72;4910444;29;20043;-71
2021/07/18 01:55:08;;;;;;;15.20;9.35;;;20.00;82.80;;;18.64;84.33;96147.50;4920206;29;20089;-70
2021/07/18 01:57:34;;;;;;;14.52;9.20;;;19.90;82.90;;;18.64;83.38;96141.34;4963032;28;20039;-70
2021/07/18 02:00:00;;;;;;;15.23;8.90;;;19.90;82.90;;;18.61;84.12;96141.81;4954593;28;20121;-71
2021/07/18 02:02:25;;;;;;;16.58;8.70;;;19.90;82.90;;;18.59;83.40;96135.91;4921693;29;20570;-71
2021/07/18 02:04:51;;;;;;;11.18;8.75;;;19.80;82.80;;;18.57;83.42;96146.81;4935950;28;20035;-72
2021/07/18 02:07:17;;;;;;;11.80;8.35;;;19.80;82.70;;;18.56;83.86;96139.88;4926817;28;20037;-73
2021/07/18 02:09:43;;;;;;;11.52;8.30;;;19.80;82.50;;;18.56;83.85;96149.72;4954774;28;20054;-72
2021/07/18 02:12:09;;;;;;;16.00;8.35;;;19.90;82.60;;;18.55;83.79;96148.06;4922413;29;20118;-72
2021/07/18 02:14:38;;;;;;;12.65;7.78;;;19.90;82.50;;;18.54;82.67;96147.25;4935785;29;20039;-72
2021/07/18 02:17:05;;;;;;;13.35;7.47;;;19.80;82.40;;;18.54;83.73;96149.13;4930208;29;20361;-71
2021/07/18 02:19:31;;;;;;;10.43;7.72;;;19.80;82.30;;;18.53;83.23;96145.63;4935714;28;20035;-72
2021/07/18 02:21:57;;;;;;;14.32;7.70;;;19.80;82.20;;;18.53;83.60;96155.50;4919581;28;20047;-71
2021/07/18 02:24:23;;;;;;;12.07;7.72;;;19.80;82.40;;;18.52;83.07;96156.53;4945870;28;20041;-71
2021/07/18 02:26:49;;;;;;;10.93;6.88;;;19.80;82.20;;;18.48;83.50;96150.88;4935263;29;20035;-71
2021/07/18 02:29:14;;;;;;;9.57;6.38;;;19.70;82.00;;;18.48;82.67;96150.06;4930170;28;20093;-72
2021/07/18 02:31:41;;;;;;;12.00;7.30;;;19.70;82.20;;;18.45;82.65;96147.88;4937834;28;20464;-71
2021/07/18 02:34:06;;;;;;;14.98;7.28;;;19.60;82.40;;;18.43;82.66;96144.66;4937355;28;21628;-72
2021/07/18 02:36:32;;;;;;;10.82;6.50;;;19.60;82.30;;;18.41;82.69;96141.41;4939020;29;20035;-71
2021/07/18 02:38:58;;;;;;;12.43;7.18;;;19.60;82.10;;;18.39;83.37;96144.31;4931834;28;20066;-71
2021/07/18 02:41:26;;;;;;;10.70;6.20;;;19.50;82.10;;;18.35;82.20;96146.66;4953834;28;20093;-72
2021/07/18 02:43:51;;;;;;;18.48;6.97;;;19.50;81.90;;;18.35;82.55;96149.31;4927827;28;20035;-72
2021/07/18 02:46:17;;;;;;;12.02;6.40;;;19.60;81.80;;;18.34;82.24;96145.03;4939233;28;20037;-71
2021/07/18 02:48:43;;;;;;;11.98;7.25;;;19.60;81.80;;;18.34;82.62;96147.69;4956067;28;20455;-72
2021/07/18 02:51:09;;;;;;;11.63;6.80;;;19.60;81.80;;;18.32;82.76;96141.78;4929011;28;20111;-71
2021/07/18 02:53:34;;;;;;;11.23;6.32;;;19.60;81.80;;;18.31;82.24;96147.34;4948641;28;20042;-73
2021/07/18 02:56:00;;;;;;;9.65;5.90;;;19.60;81.60;;;18.30;81.78;96135.88;4953309;28;20122;-71
2021/07/18 02:58:26;;;;;;;11.93;6.28;;;19.50;81.30;;;18.27;82.46;96136.34;4953613;28;20518;-72
2021/07/18 03:00:55;;;;;;;10.68;6.47;;;19.50;81.40;;;18.27;81.70;96146.19;4935518;28;20407;-71
2021/07/18 03:03:20;;;;;;;13.77;6.28;;;19.50;81.20;;;18.26;82.06;96137.41;4937220;28;20074;-71
2021/07/18 03:05:47;;;;;;;9.35;5.75;;;19.50;81.20;;;18.24;81.61;96138.69;4953460;28;20183;-72
2021/07/18 03:08:13;;;;;;;9.05;5.68;;;19.50;81.30;;;18.23;82.14;96140.53;4934613;28;20087;-71
2021/07/18 03:10:38;;;;;;;10.00;5.82;;;19.50;81.30;;;18.21;81.26;96137.31;4923092;29;20043;-71
2021/07/18 03:13:04;;;;;;;9.30;5.85;;;19.50;80.50;;;18.20;81.82;96135.69;4946226;28;20031;-71
2021/07/18 03:15:30;;;;;;;9.35;5.50;;;19.50;80.80;;;18.19;81.48;96133.25;4951794;28;20040;-71
2021/07/18 03:17:56;;;;;;;11.35;5.82;;;19.50;80.80;;;18.19;82.03;96134.06;4946035;28;20039;-71
2021/07/18 03:20:22;;;;;;;10.25;5.63;;;19.50;80.80;;;18.20;81.38;96138.34;4953918;28;20042;-72
2021/07/18 03:22:48;;;;;;;11.95;5.20;;;19.40;80.90;;;18.19;82.02;96131.41;4926216;28;20043;-71
2021/07/18 03:25:14;;;;;;;10.77;5.20;;;19.50;80.80;;;18.19;81.39;96135.94;4937769;28;20042;-72
2021/07/18 03:27:40;;;;;;;11.60;5.80;;;19.50;80.50;;;18.18;81.29;96129.78;4930997;28;20056;-73
2021/07/18 03:30:08;;;;;;;9.77;4.82;;;19.50;80.40;;;18.16;81.46;96139.88;4937965;28;20145;-71
2021/07/18 03:32:34;;;;;;;8.75;4.97;;;19.50;80.40;;;18.16;81.21;96137.22;4946768;28;20043;-72
2021/07/18 03:35:01;;;;;;;8.63;4.82;;;19.50;80.30;;;18.16;81.05;96142.53;4930223;28;20117;-72
2021/07/18 03:37:27;;;;;;;12.80;5.07;;;19.50;80.10;;;18.16;80.32;96144.38;4940960;28;20043;-71
2021/07/18 03:39:53;;;;;;;6.57;4.72;;;19.40;80.20;;;18.14;81.71;96147.28;4924018;29;20118;-71
2021/07/18 03:42:19;;;;;;;11.55;4.63;;;19.40;80.30;;;18.13;80.60;96143.00;4958929;28;20039;-71
2021/07/18 03:44:45;;;;;;;9.02;4.57;;;19.40;80.50;;;18.09;80.86;96149.00;4918848;29;20039;-71
2021/07/18 03:47:10;;;;;;;8.82;5.18;;;19.30;80.60;;;18.09;81.70;96149.81;4939397;28;20094;-71
2021/07/18 03:49:36;;;;;;;9.85;4.97;;;19.30;80.70;;;18.08;81.47;96140.22;4929397;28;20035;-71
2021/07/18 03:52:03;;;;;;;9.00;4.70;;;19.30;80.70;;;18.06;80.35;96142.31;4918720;29;20032;-73
2021/07/18 03:54:28;;;;;;;7.55;4.45;;;19.30;80.30;;;18.04;80.66;96144.41;4933716;28;20499;-71
2021/07/18 03:56:54;;;;;;;10.07;4.75;;;19.30;80.50;;;18.05;81.39;96143.34;4941794;28;20088;-72
2021/07/18 03:59:20;;;;;;;9.13;5.53;;;19.30;80.10;;;18.03;81.33;96143.59;4953100;28;20031;-72
2021/07/18 04:01:46;;;;;;;9.07;4.35;;;19.30;80.60;;;18.00;80.63;96140.59;4925146;29;20035;-72
2021/07/18 04:04:12;;;;;;;7.53;4.20;;;19.30;80.70;;;17.99;81.24;96144.28;4945854;28;20043;-71
2021/07/18 04:06:37;;;;;;;6.10;4.32;;;19.20;80.60;;;17.96;81.30;96139.44;4952099;28;20043;-72
2021/07/18 04:09:03;;;;;;;9.48;4.45;;;19.20;80.70;;;17.98;81.53;96159.47;4951124;28;20084;-72
2021/07/18 04:11:29;;;;;;;6.30;4.18;;;19.30;80.50;;;17.97;81.37;96154.38;4936021;28;20039;-71
2021/07/18 04:13:55;;;;;;;6.70;4.13;;;19.30;80.30;;;17.95;81.50;96149.28;4941410;28;20034;-72
2021/07/18 04:16:20;;;;;;;9.93;3.90;;;19.20;80.40;;;17.94;81.22;96157.50;4927433;28;20414;-72
2021/07/18 04:18:46;;;;;;;9.30;3.78;;;19.10;80.20;;;17.91;80.55;96152.66;4956085;28;20039;-73
2021/07/18 04:21:12;;;;;;;9.30;4.30;;;19.10;80.40;;;17.90;80.66;96162.50;4934220;29;20039;-72
2021/07/18 04:23:37;;;;;;;9.50;4.70;;;19.10;80.50;;;17.87;81.33;96146.97;4931468;28;20396;-72
2021/07/18 04:26:03;;;;;;;8.95;4.75;;;19.10;81.00;;;17.85;81.45;96153.56;4942038;28;20071;-71
2021/07/18 04:28:29;;;;;;;9.52;4.20;;;19.10;80.60;;;17.83;80.86;96163.63;4955197;28;20083;-72
2021/07/18 04:30:55;;;;;;;7.78;4.18;;;19.00;81.10;;;17.78;81.43;96164.34;4936902;28;20038;-71
2021/07/18 04:33:21;;;;;;;11.50;4.43;;;19.00;81.50;;;17.77;81.62;96161.91;4937373;28;20051;-72
2021/07/18 04:35:46;;;;;;;8.82;4.50;;;19.00;81.90;;;17.75;81.95;96160.28;4942064;28;20031;-71
2021/07/18 04:38:12;;;;;;;8.68;4.38;;;19.00;81.50;;;17.72;81.13;96163.41;4941084;28;20035;-72
2021/07/18 04:40:38;;;;;;;10.43;4.70;;;18.90;81.50;;;17.69;81.83;96163.88;4942954;29;20456;-71
2021/07/18 04:43:04;;;;;;;10.70;3.90;;;18.90;81.50;;;17.68;81.44;96164.13;4928911;29;20414;-71
2021/07/18 04:45:30;;;;;;;6.88;3.83;;;18.90;81.70;;;17.65;82.17;96165.38;4921532;28;20048;-71
2021/07/18 04:47:57;;;;;;;9.55;4.05;;;18.90;81.90;;;17.63;81.59;96172.75;4929280;28;20034;-71
2021/07/18 04:50:25;;;;;;;8.15;4.03;;;18.90;82.00;;;17.62;81.21;96165.81;4951758;28;20104;-72
2021/07/18 04:52:50;;;;;;;6.57;3.70;;;18.80;81.00;;;17.62;81.98;96165.81;4932758;28;20035;-72
2021/07/18 04:55:17;;;;;;;12.05;3.88;;;18.90;80.90;;;17.65;81.21;96169.84;4939672;28;20535;-72
2021/07/18 04:57:42;;;;;;;8.10;3.95;;;19.00;81.00;;;17.66;81.67;96169.66;4950110;29;20031;-72
2021/07/18 05:00:16;;;;;;;6.78;3.85;;;19.00;81.00;;;17.68;81.37;96164.13;4926276;28;20051;-72
2021/07/18 05:02:42;;;;;;;7.00;3.70;;;19.00;80.70;;;17.66;81.28;96176.81;4940205;28;20515;-72
2021/07/18 05:05:09;;;;;;;7.50;3.50;;;19.00;80.80;;;17.64;81.67;96171.69;4951691;28;20039;-73
2021/07/18 05:07:55;;;;;;;7.10;3.65;;;18.90;80.90;;;17.63;81.32;96166.63;4927359;28;20380;-72
2021/07/18 05:10:24;;;;;;;7.47;3.42;;;19.00;80.90;;;17.65;82.06;96175.16;4939004;28;20031;-72
2021/07/18 05:12:52;;;;;;;11.48;3.83;;;19.10;80.80;;;17.69;81.33;96179.03;4921326;29;20031;-72
2021/07/18 05:15:18;;;;;;;9.88;3.92;;;19.10;80.50;;;17.73;81.20;96188.97;4962841;28;20407;-71
2021/07/18 05:17:44;;;;;;;9.35;3.17;;;19.10;80.30;;;17.77;81.33;96185.84;4939764;28;20027;-71
2021/07/18 05:20:10;;;;;;;9.27;3.88;;;19.10;80.40;;;17.80;81.71;96177.41;4920490;29;20031;-71
2021/07/18 05:22:36;;;;;;;7.30;3.58;;;19.20;80.20;;;17.84;80.85;96187.34;4943416;28;20037;-71
2021/07/18 05:25:04;;;;;;;6.90;3.83;;;19.40;79.80;;;17.90;80.44;96183.78;4940059;28;20031;-71
2021/07/18 05:27:29;;;;;;;9.15;3.88;;;19.40;79.40;;;17.96;81.19;96182.03;4949728;28;20127;-71
2021/07/18 05:29:55;;;;;;;10.57;3.55;;;19.50;78.90;;;18.01;80.59;96180.28;4956835;28;20035;-72
2021/07/18 05:32:21;;;;;;;9.75;3.60;;;19.60;78.70;;;18.10;80.42;96188.69;4953553;28;20038;-72
2021/07/18 05:34:46;;;;;;;5.65;3.35;;;19.60;78.50;;;18.17;81.20;96193.94;4939881;28;20031;-71
2021/07/18 05:37:12;;;;;;;9.80;3.55;;;19.60;78.30;;;18.21;79.66;96189.75;4941584;28;20033;-72
2021/07/18 05:39:38;;;;;;;7.15;3.80;;;19.60;77.50;;;18.26;79.58;96193.31;4939287;28;20034;-72
2021/07/18 05:42:04;;;;;;;6.93;3.40;;;19.80;77.90;;;18.30;79.67;96188.31;4931850;28;20593;-71
2021/07/18 05:44:30;;;;;;;6.75;3.45;;;19.80;77.60;;;18.34;79.67;96190.31;4935479;29;20499;-71
2021/07/18 05:46:56;;;;;;;7.97;3.40;;;19.80;77.80;;;18.38;80.41;96197.81;4924014;29;20047;-73
2021/07/18 05:49:21;;;;;;;5.55;3.20;;;19.90;77.40;;;18.40;79.67;96193.88;4937894;28;20046;-71
2021/07/18 05:51:47;;;;;;;9.77;3.42;;;19.80;77.80;;;18.40;79.16;96187.75;4954631;28;20097;-72
2021/07/18 05:54:13;;;;;;;7.80;3.47;;;19.70;77.40;;;18.42;78.42;96201.63;4920816;29;20537;-71
2021/07/18 05:56:38;;;;;;;6.95;3.50;;;19.80;77.00;;;18.43;78.79;96204.06;4937550;29;20051;-72
2021/07/18 05:59:04;;;;;;;7.32;3.28;;;19.80;77.50;;;18.41;78.18;96189.34;4941182;28;20127;-71
2021/07/18 06:01:30;;;;;;;7.00;3.28;;;19.70;76.60;;;18.39;78.88;96196.78;4926966;28;20415;-72
2021/07/18 06:03:56;;;;;;;9.55;3.50;;;19.70;76.40;;;18.36;78.85;96204.19;4952089;28;20046;-71
2021/07/18 06:06:22;;;;;;;5.75;3.58;;;19.80;77.10;;;18.36;78.42;96212.19;4941678;29;20054;-71
2021/07/18 06:08:47;;;;;;;7.63;3.85;;;19.80;77.00;;;18.36;78.94;96212.19;4935548;29;20515;-73
2021/07/18 06:11:13;;;;;;;7.80;4.07;;;19.80;77.00;;;18.33;78.24;96203.84;4954508;28;20031;-70
2021/07/18 06:13:39;;;;;;;7.78;3.17;;;19.70;77.20;;;18.30;79.17;96205.13;4942595;29;20042;-71
2021/07/18 06:16:05;;;;;;;6.35;3.20;;;19.60;77.60;;;18.28;78.37;96212.53;4920971;28;20155;-71
2021/07/18 06:18:31;;;;;;;5.97;3.30;;;19.60;77.50;;;18.22;78.96;96207.34;4940162;28;20045;-71
2021/07/18 06:20:57;;;;;;;6.20;3.60;;;19.60;77.80;;;18.24;78.39;96208.72;4943796;28;20106;-71
2021/07/18 06:23:22;;;;;;;6.97;3.28;;;19.60;78.10;;;18.21;78.74;96201.22;4932138;28;20085;-72
2021/07/18 06:25:48;;;;;;;7.50;3.60;;;19.50;77.70;;;18.21;78.91;96221.69;4934528;28;20037;-73
2021/07/18 06:28:14;;;;;;;5.32;3.33;;;19.60;77.20;;;18.19;78.55;96213.94;4954097;28;20035;-71
2021/07/18 06:30:40;;;;;;;9.68;3.67;;;19.60;77.50;;;18.20;78.21;96223.56;4941759;28;20117;-71
2021/07/18 06:33:05;;;;;;;7.75;4.30;;;19.60;77.20;;;18.19;78.17;96227.25;4941717;28;20039;-72
2021/07/18 06:35:31;;;;;;;6.65;3.60;;;19.60;77.40;;;18.21;79.06;96219.03;4942702;28;20098;-72
2021/07/18 06:37:57;;;;;;;7.30;3.63;;;19.60;77.30;;;18.22;78.94;96224.13;4964429;28;20057;-70
2021/07/18 06:40:22;;;;;;;7.60;3.90;;;19.60;77.10;;;18.24;77.75;96222.03;4957705;28;20046;-70
2021/07/18 06:42:48;;;;;;;8.60;3.70;;;19.70;77.30;;;18.28;79.27;96220.53;4945986;28;20118;-75
2021/07/18 06:45:14;;;;;;;9.05;3.90;;;19.80;77.10;;;18.33;78.03;96222.47;4944027;28;20034;-76
2021/07/18 06:47:40;;;;;;;10.00;4.00;;;19.90;77.10;;;18.34;78.07;96222.25;4954658;28;20027;-75
2021/07/18 06:50:07;;;;;;;8.18;3.88;;;19.80;76.70;;;18.38;78.08;96225.25;4949119;28;20403;-75
2021/07/18 06:52:32;;;;;;;7.00;3.65;;;19.90;76.60;;;18.43;77.70;96230.69;4938564;28;20043;-74
2021/07/18 06:54:58;;;;;;;9.30;3.83;;;19.90;76.80;;;18.46;78.61;96237.41;4927042;28;20102;-75
2021/07/18 06:57:24;;;;;;;7.20;4.35;;;20.10;76.90;;;18.51;78.01;96237.50;4935097;28;20056;-75
2021/07/18 06:59:49;;;;;;;6.97;3.80;;;20.00;76.50;;;18.53;77.88;96236.22;4955115;28;20399;-75
2021/07/18 07:02:15;;;;;;;6.03;3.65;;;20.10;76.40;;;18.54;77.71;96235.16;4949595;28;20043;-76
2021/07/18 07:04:41;;;;;;;10.50;3.95;;;20.10;75.90;;;18.56;77.29;96238.44;4928074;29;20051;-75
2021/07/18 07:07:07;;;;;;;6.68;3.70;;;20.10;76.10;;;18.55;77.18;96249.28;4919089;28;20444;-75
2021/07/18 07:09:33;;;;;;;8.52;3.80;;;20.10;76.40;;;18.58;78.33;96243.53;4924648;28;20031;-75
2021/07/18 07:11:59;;;;;;;7.93;5.10;;;20.10;76.40;;;18.58;77.08;96246.19;4922275;28;20101;-76
2021/07/18 07:14:24;;;;;;;9.77;4.85;;;20.10;75.90;;;18.58;77.37;96252.31;4946482;28;20039;-75
2021/07/18 07:16:50;;;;;;;9.23;4.18;;;20.10;76.20;;;18.62;77.20;96258.81;4921753;28;20149;-75
2021/07/18 07:19:16;;;;;;;7.90;4.10;;;20.20;76.10;;;18.67;78.05;96253.59;4934042;28;20035;-68
2021/07/18 07:21:42;;;;;;;9.07;4.15;;;20.20;75.80;;;18.74;77.93;96253.44;4938666;28;20133;-69
2021/07/18 07:24:07;;;;;;;7.82;4.10;;;20.40;75.40;;;18.84;77.01;96253.66;4934276;29;20118;-70
2021/07/18 07:26:33;;;;;;;8.50;3.80;;;20.60;74.70;;;19.00;77.11;96256.59;4954428;28;20039;-71
2021/07/18 07:28:59;;;;;;;8.05;3.92;;;20.80;73.80;;;19.15;77.53;96254.22;4943677;28;20043;-70
2021/07/18 07:31:25;;;;;;;7.60;3.92;;;21.10;73.60;;;19.34;76.93;96247.66;4945398;28;20062;-68
2021/07/18 07:33:50;;;;;;;6.63;3.75;;;21.40;73.20;;;19.47;76.30;96258.03;4952754;28;20117;-72
2021/07/18 07:36:17;;;;;;;7.95;3.97;;;21.50;71.90;;;19.61;76.49;96265.72;4936413;29;20122;-73
2021/07/18 07:38:43;;;;;;;10.60;4.55;;;21.50;72.30;;;19.71;75.91;96257.91;4930892;28;20042;-68
2021/07/18 07:41:08;;;;;;;5.65;3.53;;;21.50;72.00;;;19.76;75.85;96264.13;4953151;28;20041;-71
2021/07/18 07:43:34;;;;;;;10.50;4.90;;;21.50;71.70;;;19.78;75.53;96258.56;4933311;28;20455;-72
2021/07/18 07:46:00;;;;;;;7.25;4.72;;;21.40;72.20;;;19.80;75.68;96259.13;4929557;28;20089;-70
2021/07/18 07:48:26;;;;;;;7.93;4.25;;;21.40;72.50;;;19.82;75.69;96265.00;4953354;28;20027;-72
2021/07/18 07:50:52;;;;;;;8.57;4.00;;;21.40;72.30;;;19.82;74.67;96265.00;4933747;28;20200;-78
2021/07/18 07:53:17;;;;;;;9.10;3.95;;;21.40;71.90;;;19.80;75.04;96261.78;4953844;28;20070;-78
2021/07/18 07:55:44;;;;;;;10.50;4.05;;;21.40;71.70;;;19.81;74.69;96274.06;4937758;28;20039;-75
2021/07/18 07:58:09;;;;;;;6.03;4.05;;;21.40;71.80;;;19.80;75.04;96264.44;4952053;28;20056;-72
2021/07/18 08:00:35;;;;;;;7.25;4.80;;;21.40;72.10;;;19.81;74.54;96268.75;4943667;28;20124;-72
2021/07/18 08:03:02;;;;;;;9.45;4.35;;;21.30;72.70;;;19.80;74.46;96267.13;4960149;28;20396;-74
2021/07/18 08:05:28;;;;;;;8.40;4.90;;;21.40;72.30;;;19.81;75.14;96271.41;4935269;28;20086;-72
2021/07/18 08:07:53;;;;;;;8.80;4.78;;;21.40;73.00;;;19.81;74.68;96269.53;4942785;28;20041;-71
2021/07/18 08:10:21;;;;;;;8.77;4.50;;;21.30;72.60;;;19.79;74.91;96273.50;4950583;28;20450;-72
2021/07/18 08:12:47;;;;;;;15.88;8.40;;;21.30;72.60;;;19.78;74.69;96277.22;4941784;28;20043;-74
2021/07/18 08:15:14;;;;;;;10.65;5.63;;;21.20;72.80;;;19.77;74.67;96278.28;4936867;28;20078;-72
2021/07/18 08:17:40;;;;;;;7.43;5.10;;;21.10;72.80;;;19.73;74.75;96272.63;4931322;29;20054;-70
2021/07/18 08:20:08;;;;;;;6.60;4.50;;;21.10;73.40;;;19.73;74.65;96271.81;4934091;28;20057;-72
2021/07/18 08:22:34;;;;;;;11.38;5.20;;;21.10;72.70;;;19.70;73.79;96272.31;4950809;28;20031;-71
2021/07/18 08:25:00;;;;;;;9.05;5.57;;;21.10;72.80;;;19.70;74.81;96266.97;4962099;28;20038;-75
2021/07/18 08:27:25;;;;;;;7.13;4.93;;;21.20;72.80;;;19.71;73.83;96274.72;4952811;28;20057;-71
2021/07/18 08:29:51;;;;;;;8.40;5.43;;;21.30;72.70;;;19.75;74.48;96277.72;4953733;28;20470;-72
2021/07/18 08:32:17;;;;;;;9.75;4.97;;;21.40;73.00;;;19.77;75.03;96279.09;4936954;28;20089;-72
2021/07/18 08:34:43;;;;;;;8.25;5.32;;;21.40;73.00;;;19.80;75.41;96278.59;4926588;28;20043;-73
2021/07/18 08:37:08;;;;;;;7.78;5.15;;;21.50;72.60;;;19.84;74.54;96273.59;4951561;28;20031;-75
2021/07/18 08:39:34;;;;;;;6.32;4.72;;;21.50;73.20;;;19.88;74.35;96280.06;4935856;28;20081;-73
2021/07/18 08:42:01;;;;;;;9.23;5.18;;;21.60;72.50;;;19.94;75.38;96284.44;4952922;28;20459;-73
2021/07/18 08:44:27;;;;;;;10.68;5.10;;;21.70;72.10;;;20.00;74.55;96283.47;4950776;28;20051;-72
2021/07/18 08:46:52;;;;;;;10.80;5.40;;;21.80;72.90;;;20.08;75.04;96279.56;4936617;28;20051;-72
2021/07/18 08:49:18;;;;;;;7.63;5.43;;;21.90;72.90;;;20.13;74.97;96280.44;4968800;28;20046;-72
2021/07/18 08:51:44;;;;;;;9.70;5.57;;;22.00;72.40;;;20.18;75.24;96269.84;4936463;28;20054;-75
2021/07/18 08:54:09;;;;;;;6.85;5.38;;;22.00;72.80;;;20.26;75.72;96278.50;4954257;28;20038;-70
2021/07/18 08:56:36;;;;;;;8.07;5.78;;;22.10;72.50;;;20.35;75.16;96282.34;4956330;28;20111;-73
2021/07/18 08:59:06;;;;;;;11.23;5.60;;;22.20;72.00;;;20.46;74.67;96284.16;4956210;28;20058;-76
2021/07/18 09:01:33;;;;;;;9.98;5.72;;;22.50;71.70;;;20.56;75.49;96281.59;4954655;28;20117;-75
2021/07/18 09:03:59;;;;;;;10.65;6.22;;;22.50;72.10;;;20.73;74.74;96287.72;4938593;28;20040;-74
2021/07/18 09:06:33;;;;;;;9.27;5.75;;;22.90;70.90;;;20.96;74.97;96285.84;4931973;29;20494;-75
2021/07/18 09:08:59;;;;;;;8.52;5.60;;;23.20;70.20;;;21.24;74.61;96282.97;4930779;28;20038;-71
2021/07/18 09:11:25;;;;;;;10.35;6.43;;;23.90;68.00;;;21.70;74.09;96280.75;4938461;28;20039;-71
2021/07/18 09:14:07;;;;;;;10.05;6.38;;;24.70;66.50;;;22.21;71.14;96283.88;4948894;28;20054;-70
2021/07/18 09:16:38;;;;;;;12.32;6.88;;;25.10;63.70;;;22.56;71.63;96272.53;4956634;28;20038;-71
2021/07/18 09:19:29;;;;;;;7.90;6.40;;;25.40;62.70;;;22.94;69.47;96270.59;4939050;28;20047;-72
2021/07/18 09:21:57;;;;;;;10.88;6.82;;;25.70;62.40;;;23.16;69.12;96276.56;4939318;28;20035;-72
2021/07/18 09:24:25;;;;;;;12.38;7.50;;;25.60;62.00;;;23.22;68.80;96275.50;4967928;28;20090;-72
2021/07/18 09:27:14;;;;;;;11.27;8.00;;;25.20;61.90;;;23.22;66.85;96280.88;4940530;28;20039;-75
2021/07/18 09:29:55;;;;;;;9.63;7.18;;;25.00;62.10;;;23.15;65.91;96288.38;4950428;28;20122;-73
2021/07/18 09:32:27;;;;;;;11.45;8.70;;;24.90;62.40;;;23.01;67.29;96280.00;4933892;28;20117;-75
2021/07/18 09:34:59;;;;;;;12.88;8.15;;;24.60;63.30;;;22.87;66.96;96279.72;4975102;28;20050;-74
2021/07/18 09:37:27;;;;;;;11.30;8.27;;;24.40;63.90;;;22.78;68.03;96285.78;4923166;28;20063;-76
2021/07/18 09:39:59;;;;;;;12.65;8.57;;;24.20;64.80;;;22.70;67.39;96288.97;4919876;29;20055;-73
2021/07/18 09:42:30;;;;;;;8.48;7.18;;;24.10;65.00;;;22.60;68.05;96295.88;4939159;28;20078;-73
2021/07/18 09:44:56;;;;;;;13.27;10.23;;;24.10;65.00;;;22.51;68.57;96292.09;4951715;28;20040;-74
2021/07/18 09:47:21;;;;;;;14.57;9.18;;;24.00;65.80;;;22.46;68.49;96288.56;4930119;28;20530;-75
2021/07/18 09:49:48;;;;;;;11.52;9.55;;;24.00;65.30;;;22.41;68.59;96289.38;4945200;28;20059;-74
2021/07/18 09:52:26;;;;;;;11.73;9.48;;;24.00;66.00;;;22.33;66.98;96289.81;4923744;29;20042;-73
2021/07/18 09:54:54;;;;;;;18.95;10.48;;;23.80;65.30;;;22.23;68.81;96303.16;4945838;28;20036;-72
2021/07/18 09:57:41;;;;;;;14.13;10.38;;;23.70;66.50;;;22.16;67.71;96298.00;4932105;28;20114;-73
2021/07/18 10:00:11;;;;;;;15.75;11.27;;;23.60;66.50;;;22.06;68.46;96289.09;4923333;28;20052;-75
2021/07/18 10:02:40;;;;;;;16.42;12.63;;;23.60;67.00;;;22.05;68.31;96298.22;4934360;29;20539;-73
2021/07/18 10:05:06;;;;;;;16.38;12.63;;;23.50;66.10;;;21.97;68.82;96307.50;4927716;29;20035;-73
2021/07/18 10:07:35;;;;;;;16.15;11.90;;;23.30;66.60;;;21.89;68.80;96300.72;4916329;28;20035;-72
2021/07/18 10:10:05;;;;;;;17.58;12.10;;;23.40;66.90;;;21.85;68.66;96299.63;4931285;28;20047;-73
2021/07/18 10:12:32;;;;;;;16.45;12.32;;;23.40;67.10;;;21.83;68.85;96301.75;4925824;29;20046;-73